createdAt,value
2023-02-16T00:00:21.672Z,1011.99
2023-02-16T00:05:21.684Z,1012.03
2023-02-16T00:10:21.500Z,1012.13
2023-02-16T00:15:21.533Z,1012.16
2023-02-16T00:20:21.377Z,1012.06
2023-02-16T00:25:21.304Z,1012.17
2023-02-16T00:30:21.390Z,1012.18
2023-02-16T00:35:21.214Z,1012.19
2023-02-16T00:40:21.156Z,1012.17
2023-02-16T00:45:21.094Z,1012.15
2023-02-16T00:50:20.977Z,1012.04
2023-02-16T00:55:20.973Z,1011.97
2023-02-16T01:00:20.846Z,1012.03
2023-02-16T01:05:20.771Z,1012.06
2023-02-16T01:10:20.760Z,1011.94
2023-02-16T01:15:20.733Z,1012.06
2023-02-16T01:20:20.578Z,1012.00
2023-02-16T01:25:20.560Z,1011.88
2023-02-16T01:30:20.496Z,1011.88
2023-02-16T01:35:20.379Z,1011.89
2023-02-16T01:40:20.388Z,1011.94
2023-02-16T01:45:20.409Z,1011.88
2023-02-16T01:50:20.169Z,1011.83
2023-02-16T01:55:20.126Z,1011.82
2023-02-16T02:00:20.065Z,1011.80
2023-02-16T02:05:20.158Z,1011.73
2023-02-16T02:10:19.967Z,1011.64
2023-02-16T02:15:19.912Z,1011.64
2023-02-16T02:20:19.823Z,1011.72
2023-02-16T02:25:19.760Z,1011.70
2023-02-16T02:30:19.719Z,1011.70
2023-02-16T02:35:19.626Z,1011.76
2023-02-16T02:40:19.552Z,1011.73
2023-02-16T02:45:19.494Z,1011.79
2023-02-16T02:50:19.477Z,1011.63
2023-02-16T02:55:19.334Z,1011.56
2023-02-16T03:00:19.307Z,1011.57
2023-02-16T03:05:19.288Z,1011.52
2023-02-16T03:10:19.137Z,1011.57
2023-02-16T03:15:19.097Z,1011.70
2023-02-16T03:20:19.031Z,1011.60
2023-02-16T03:25:18.980Z,1011.72
2023-02-16T03:30:18.989Z,1011.71
2023-02-16T03:35:18.813Z,1011.61
2023-02-16T03:40:18.837Z,1011.75
2023-02-16T03:45:18.727Z,1011.81
2023-02-16T03:50:18.671Z,1011.80
2023-02-16T03:55:18.586Z,1011.82
2023-02-16T04:00:18.614Z,1011.83
2023-02-16T04:05:18.550Z,1011.67
2023-02-16T04:10:18.356Z,1011.64
2023-02-16T04:15:18.339Z,1011.61
2023-02-16T04:20:18.284Z,1011.71
2023-02-16T04:25:18.294Z,1011.60
2023-02-16T04:30:18.234Z,1011.50
2023-02-16T04:35:18.073Z,1011.68
2023-02-16T04:40:17.996Z,1011.57
2023-02-16T04:45:18.005Z,1011.57
2023-02-16T04:50:17.865Z,1011.63
2023-02-16T04:55:17.826Z,1011.49
2023-02-16T05:00:17.737Z,1011.52
2023-02-16T05:05:17.678Z,1011.47
2023-02-16T05:10:17.570Z,1011.51
2023-02-16T05:15:17.527Z,1011.57
2023-02-16T05:20:17.460Z,1011.49
2023-02-16T05:25:17.413Z,1011.64
2023-02-16T05:30:17.385Z,1011.64
2023-02-16T05:35:17.308Z,1011.61
2023-02-16T05:40:17.272Z,1011.71
2023-02-16T05:45:17.199Z,1011.67
2023-02-16T05:50:17.110Z,1011.72
2023-02-16T05:55:17.030Z,1011.82
2023-02-16T06:00:16.947Z,1011.81
2023-02-16T06:05:16.929Z,1011.79
2023-02-16T06:10:16.862Z,1011.83
2023-02-16T06:15:16.806Z,1011.81
2023-02-16T06:20:16.737Z,1011.69
2023-02-16T06:25:16.671Z,1011.80
2023-02-16T06:30:16.634Z,1011.82
2023-02-16T06:35:16.510Z,1011.81
2023-02-16T06:40:16.476Z,1011.79
2023-02-16T06:45:16.410Z,1011.91
2023-02-16T06:50:16.326Z,1011.79
2023-02-16T06:55:16.296Z,1011.79
2023-02-16T07:00:16.221Z,1011.83
2023-02-16T07:05:16.133Z,1011.67
2023-02-16T07:10:16.077Z,1011.68
2023-02-16T07:15:16.009Z,1011.69
2023-02-16T07:20:15.925Z,1011.63
2023-02-16T07:25:15.961Z,1011.54
2023-02-16T07:30:15.874Z,1011.47
2023-02-16T07:35:15.823Z,1011.54
2023-02-16T07:40:15.720Z,1011.71
2023-02-16T07:45:15.629Z,1011.76
2023-02-16T07:50:15.921Z,1011.71
2023-02-16T07:55:15.525Z,1011.73
2023-02-16T08:00:15.397Z,1011.62
2023-02-16T08:05:15.372Z,1011.70
2023-02-16T08:10:15.302Z,1011.70
2023-02-16T08:15:15.236Z,1011.79
2023-02-16T08:20:15.145Z,1011.75
2023-02-16T08:25:15.114Z,1011.63
2023-02-16T08:30:15.096Z,1011.71
2023-02-16T08:35:14.974Z,1011.62
2023-02-16T08:40:14.893Z,1011.63
2023-02-16T08:45:14.874Z,1011.57
2023-02-16T08:50:14.896Z,1011.51
2023-02-16T08:55:14.680Z,1011.54
2023-02-16T09:00:14.928Z,1011.51
2023-02-16T09:05:14.549Z,1011.46
2023-02-16T09:10:14.521Z,1011.38
2023-02-16T09:15:14.429Z,1011.41
2023-02-16T09:20:14.370Z,1011.32
2023-02-16T09:25:14.304Z,1011.28
2023-02-16T09:30:14.235Z,1011.36
2023-02-16T09:35:14.154Z,1011.36
2023-02-16T09:40:14.108Z,1011.27
2023-02-16T09:45:14.068Z,1011.24
2023-02-16T09:50:13.956Z,1011.23
2023-02-16T09:55:13.921Z,1011.27
2023-02-16T10:00:13.814Z,1011.26
2023-02-16T10:05:13.758Z,1011.34
2023-02-16T10:10:13.679Z,1011.33
2023-02-16T10:15:13.629Z,1011.38
2023-02-16T10:20:13.576Z,1011.38
2023-02-16T10:25:13.561Z,1011.27
2023-02-16T10:30:13.497Z,1011.29
2023-02-16T10:35:13.399Z,1011.31
2023-02-16T10:40:13.281Z,1011.19
2023-02-16T10:45:13.269Z,1011.22
2023-02-16T10:50:13.179Z,1011.09
2023-02-16T10:55:13.112Z,1010.99
2023-02-16T11:00:13.048Z,1010.91
2023-02-16T11:05:12.996Z,1010.95
2023-02-16T11:10:12.911Z,1010.99
2023-02-16T11:15:12.854Z,1010.95
2023-02-16T11:20:12.774Z,1010.89
2023-02-16T11:25:12.734Z,1010.87
2023-02-16T11:30:12.700Z,1010.84
2023-02-16T11:35:12.654Z,1010.77
2023-02-16T11:40:12.503Z,1010.58
2023-02-16T11:45:12.490Z,1010.54
2023-02-16T11:50:12.424Z,1010.47
2023-02-16T11:55:12.346Z,1010.29
2023-02-16T12:00:12.335Z,1010.32
2023-02-16T12:05:12.314Z,1010.36
2023-02-16T12:10:12.265Z,1010.34
2023-02-16T12:15:12.109Z,1010.40
2023-02-16T12:20:12.038Z,1010.16
2023-02-16T12:25:11.934Z,1010.15
2023-02-16T12:30:12.031Z,1010.15
2023-02-16T12:35:11.793Z,1010.06
2023-02-16T12:40:11.775Z,1010.01
2023-02-16T12:45:11.679Z,1010.04
2023-02-16T12:50:11.592Z,1009.95
2023-02-16T12:55:11.515Z,1009.81
2023-02-16T13:00:11.452Z,1009.95
2023-02-16T13:05:11.391Z,1009.81
2023-02-16T13:10:11.321Z,1009.80
2023-02-16T13:15:11.237Z,1009.67
2023-02-16T13:20:11.198Z,1009.66
2023-02-16T13:25:11.149Z,1009.68
2023-02-16T13:30:11.084Z,1009.68
2023-02-16T13:35:10.998Z,1009.61
2023-02-16T13:40:10.922Z,1009.59
2023-02-16T13:45:10.858Z,1009.62
2023-02-16T13:50:10.796Z,1009.67
2023-02-16T13:55:10.738Z,1009.62
2023-02-16T14:00:10.690Z,1009.61
2023-02-16T14:05:10.613Z,1009.76
2023-02-16T14:10:10.561Z,1009.73
2023-02-16T14:15:10.472Z,1009.81
2023-02-16T14:20:10.430Z,1009.76
2023-02-16T14:25:10.343Z,1009.77
2023-02-16T14:30:10.376Z,1009.83
2023-02-16T14:35:10.201Z,1009.89
2023-02-16T14:40:10.136Z,1009.83
2023-02-16T14:45:10.069Z,1009.89
2023-02-16T14:50:10.058Z,1009.86
2023-02-16T14:55:09.948Z,1009.87
2023-02-16T15:00:09.876Z,1009.93
2023-02-16T15:05:09.884Z,1009.79
2023-02-16T15:10:09.751Z,1009.83
2023-02-16T15:15:09.695Z,1009.92
2023-02-16T15:20:09.588Z,1009.78
2023-02-16T15:25:09.625Z,1009.90
2023-02-16T15:30:09.610Z,1009.76
2023-02-16T15:35:09.454Z,1009.65
2023-02-16T15:40:25.134Z,1009.78
2023-02-16T15:45:10.361Z,1009.74
2023-02-16T15:50:09.220Z,1009.63
2023-02-16T15:55:09.200Z,1009.71
2023-02-16T16:00:09.181Z,1009.70
2023-02-16T16:05:09.127Z,1009.67
2023-02-16T16:10:09.009Z,1009.71
2023-02-16T16:15:08.942Z,1009.73
2023-02-16T16:20:08.932Z,1009.72
2023-02-16T16:25:08.795Z,1009.71
2023-02-16T16:30:08.770Z,1009.79
2023-02-16T16:35:08.684Z,1009.77
2023-02-16T16:40:08.601Z,1009.78
2023-02-16T16:45:08.523Z,1009.81
2023-02-16T16:50:08.617Z,1009.81
2023-02-16T16:55:08.477Z,1009.80
2023-02-16T17:00:08.394Z,1009.80
2023-02-16T17:05:08.259Z,1009.77
2023-02-16T17:10:08.189Z,1009.67
2023-02-16T17:15:08.352Z,1009.76
2023-02-16T17:20:08.084Z,1009.82
2023-02-16T17:25:08.100Z,1009.79
2023-02-16T17:30:07.990Z,1009.75
2023-02-16T17:35:07.869Z,1009.77
2023-02-16T17:40:07.778Z,1009.77
2023-02-16T17:45:07.744Z,1009.58
2023-02-16T17:50:07.683Z,1009.61
2023-02-16T17:55:07.626Z,1009.52
2023-02-16T18:00:07.531Z,1009.47
2023-02-16T18:05:07.458Z,1009.61
2023-02-16T18:10:07.575Z,1009.53
2023-02-16T18:15:07.379Z,1009.58
2023-02-16T18:20:07.274Z,1009.67
2023-02-16T18:25:07.225Z,1009.61
2023-02-16T18:30:07.199Z,1009.72
2023-02-16T18:35:07.095Z,1009.70
2023-02-16T18:40:07.018Z,1009.70
2023-02-16T18:45:07.681Z,1009.67
2023-02-16T18:50:06.905Z,1009.83
2023-02-16T18:55:06.818Z,1009.85
2023-02-16T19:00:06.783Z,1009.81
2023-02-16T19:05:06.726Z,1009.78
2023-02-16T19:10:06.618Z,1009.83
2023-02-16T19:15:06.577Z,1010.08
2023-02-16T19:20:06.469Z,1010.02
2023-02-16T19:25:06.442Z,1009.98
2023-02-16T19:30:06.433Z,1009.85
2023-02-16T19:35:06.334Z,1009.72
2023-02-16T19:40:06.273Z,1009.64
2023-02-16T19:45:06.162Z,1009.63
2023-02-16T19:50:06.108Z,1009.59
2023-02-16T19:55:06.062Z,1009.62
2023-02-16T20:00:06.053Z,1009.69
2023-02-16T20:05:05.909Z,1009.71
2023-02-16T20:10:05.809Z,1009.70
2023-02-16T20:15:05.763Z,1009.54
2023-02-16T20:20:05.770Z,1009.70
2023-02-16T20:25:05.637Z,1009.65
2023-02-16T20:30:05.613Z,1009.66
2023-02-16T20:35:05.525Z,1009.62
2023-02-16T20:40:05.495Z,1009.63
2023-02-16T20:45:05.397Z,1009.70
2023-02-16T20:50:05.384Z,1009.62
2023-02-16T20:55:05.237Z,1009.64
2023-02-16T21:00:05.248Z,1009.67
2023-02-16T21:05:05.124Z,1009.59
2023-02-16T21:10:05.054Z,1009.51
2023-02-16T21:15:04.992Z,1009.45
2023-02-16T21:20:04.916Z,1009.48
2023-02-16T21:25:04.870Z,1009.50
2023-02-16T21:30:05.206Z,1009.34
2023-02-16T21:35:04.793Z,1009.26
2023-02-16T21:40:04.750Z,1009.24
2023-02-16T21:45:04.620Z,1008.99
2023-02-16T21:50:04.529Z,1008.97
2023-02-16T21:55:04.456Z,1008.97
2023-02-16T22:00:04.432Z,1008.91
2023-02-16T22:05:04.383Z,1008.96
2023-02-16T22:10:04.253Z,1008.89
2023-02-16T22:15:04.205Z,1008.90
2023-02-16T22:20:04.174Z,1008.91
2023-02-16T22:25:04.089Z,1008.94
2023-02-16T22:30:04.059Z,1008.88
2023-02-16T22:35:03.930Z,1008.75
2023-02-16T22:40:03.861Z,1008.72
2023-02-16T22:45:03.909Z,1008.71
2023-02-16T22:50:03.805Z,1008.63
2023-02-16T22:55:03.695Z,1008.62
2023-02-16T23:00:03.710Z,1008.51
2023-02-16T23:05:03.596Z,1008.32
2023-02-16T23:10:03.485Z,1008.31
2023-02-16T23:15:03.444Z,1008.10
2023-02-16T23:20:03.415Z,1008.28
2023-02-16T23:25:03.537Z,1008.24
2023-02-16T23:30:03.283Z,1008.17
2023-02-16T23:35:03.135Z,1008.07
2023-02-16T23:40:03.084Z,1008.04
2023-02-16T23:45:02.996Z,1008.08
2023-02-16T23:50:02.965Z,1007.97
2023-02-16T23:55:03.026Z,1007.80
